sensor_id;sensor_type;location;lat;lon;timestamp;P1;durP1;ratioP1;P2;durP2;ratioP2
5662;SDS011;2854;42.692;23.364;2023-03-01T00:00:45;3.53;;;1.90;;
5662;SDS011;2854;42.692;23.364;2023-03-01T00:03:11;2.97;;;2.13;;
5662;SDS011;2854;42.692;23.364;2023-03-01T00:05:36;1.60;;;1.50;;
5662;SDS011;2854;42.692;23.364;2023-03-01T00:08:08;1.67;;;1.20;;
5662;SDS011;2854;42.692;23.364;2023-03-01T00:10:33;1.50;;;1.40;;
5662;SDS011;2854;42.692;23.364;2023-03-01T00:12:58;2.00;;;1.73;;
5662;SDS011;2854;42.692;23.364;2023-03-01T00:15:23;2.27;;;1.50;;
5662;SDS011;2854;42.692;23.364;2023-03-01T00:17:49;2.40;;;1.20;;
5662;SDS011;2854;42.692;23.364;2023-03-01T00:20:14;1.60;;;1.50;;
5662;SDS011;2854;42.692;23.364;2023-03-01T00:22:40;1.53;;;1.40;;
5662;SDS011;2854;42.692;23.364;2023-03-01T00:25:06;1.43;;;1.33;;
5662;SDS011;2854;42.692;23.364;2023-03-01T00:27:31;1.77;;;1.37;;
5662;SDS011;2854;42.692;23.364;2023-03-01T00:29:56;1.50;;;1.40;;
5662;SDS011;2854;42.692;23.364;2023-03-01T00:32:21;1.63;;;1.27;;
5662;SDS011;2854;42.692;23.364;2023-03-01T00:34:47;1.67;;;1.30;;
5662;SDS011;2854;42.692;23.364;2023-03-01T00:37:19;3.77;;;2.20;;
5662;SDS011;2854;42.692;23.364;2023-03-01T00:39:45;1.00;;;1.00;;
5662;SDS011;2854;42.692;23.364;2023-03-01T00:42:11;6.40;;;2.20;;
5662;SDS011;2854;42.692;23.364;2023-03-01T00:44:36;1.30;;;1.10;;
5662;SDS011;2854;42.692;23.364;2023-03-01T00:47:01;1.73;;;1.50;;
5662;SDS011;2854;42.692;23.364;2023-03-01T00:49:26;1.50;;;1.40;;
5662;SDS011;2854;42.692;23.364;2023-03-01T00:51:52;1.67;;;1.10;;
5662;SDS011;2854;42.692;23.364;2023-03-01T00:54:18;2.77;;;1.27;;
5662;SDS011;2854;42.692;23.364;2023-03-01T00:56:43;1.93;;;1.43;;
5662;SDS011;2854;42.692;23.364;2023-03-01T00:59:08;1.30;;;1.20;;
5662;SDS011;2854;42.692;23.364;2023-03-01T01:01:34;2.20;;;1.10;;
5662;SDS011;2854;42.692;23.364;2023-03-01T01:04:00;1.60;;;1.00;;
5662;SDS011;2854;42.692;23.364;2023-03-01T01:06:27;0.87;;;0.87;;
5662;SDS011;2854;42.692;23.364;2023-03-01T01:08:52;0.97;;;0.97;;
5662;SDS011;2854;42.692;23.364;2023-03-01T01:11:18;1.63;;;1.53;;
5662;SDS011;2854;42.692;23.364;2023-03-01T01:13:45;1.00;;;0.90;;
5662;SDS011;2854;42.692;23.364;2023-03-01T01:16:10;1.00;;;1.00;;
5662;SDS011;2854;42.692;23.364;2023-03-01T01:18:36;2.63;;;1.43;;
5662;SDS011;2854;42.692;23.364;2023-03-01T01:21:05;1.87;;;1.77;;
5662;SDS011;2854;42.692;23.364;2023-03-01T01:23:31;1.33;;;1.13;;
5662;SDS011;2854;42.692;23.364;2023-03-01T01:25:56;2.30;;;1.50;;
5662;SDS011;2854;42.692;23.364;2023-03-01T01:28:22;1.40;;;1.30;;
5662;SDS011;2854;42.692;23.364;2023-03-01T01:30:47;1.37;;;1.27;;
5662;SDS011;2854;42.692;23.364;2023-03-01T01:33:12;2.00;;;1.23;;
5662;SDS011;2854;42.692;23.364;2023-03-01T01:35:37;2.37;;;1.43;;
5662;SDS011;2854;42.692;23.364;2023-03-01T01:38:03;1.23;;;1.20;;
5662;SDS011;2854;42.692;23.364;2023-03-01T01:40:28;1.10;;;1.00;;
5662;SDS011;2854;42.692;23.364;2023-03-01T01:42:53;1.33;;;1.20;;
5662;SDS011;2854;42.692;23.364;2023-03-01T01:45:29;1.40;;;1.30;;
5662;SDS011;2854;42.692;23.364;2023-03-01T01:47:57;1.00;;;0.90;;
5662;SDS011;2854;42.692;23.364;2023-03-01T01:50:23;1.07;;;0.97;;
5662;SDS011;2854;42.692;23.364;2023-03-01T01:52:49;0.70;;;0.70;;
5662;SDS011;2854;42.692;23.364;2023-03-01T01:55:16;0.80;;;0.73;;
5662;SDS011;2854;42.692;23.364;2023-03-01T01:57:45;1.00;;;1.00;;
5662;SDS011;2854;42.692;23.364;2023-03-01T02:00:16;0.70;;;0.70;;
5662;SDS011;2854;42.692;23.364;2023-03-01T02:02:43;0.70;;;0.70;;
5662;SDS011;2854;42.692;23.364;2023-03-01T02:05:14;1.10;;;1.00;;
5662;SDS011;2854;42.692;23.364;2023-03-01T02:07:41;1.03;;;1.03;;
5662;SDS011;2854;42.692;23.364;2023-03-01T02:10:07;1.00;;;0.90;;
5662;SDS011;2854;42.692;23.364;2023-03-01T02:12:33;1.23;;;1.23;;
5662;SDS011;2854;42.692;23.364;2023-03-01T02:14:59;1.80;;;1.03;;
5662;SDS011;2854;42.692;23.364;2023-03-01T02:17:24;0.97;;;0.97;;
5662;SDS011;2854;42.692;23.364;2023-03-01T02:19:53;1.30;;;1.20;;
5662;SDS011;2854;42.692;23.364;2023-03-01T02:22:24;1.00;;;1.00;;
5662;SDS011;2854;42.692;23.364;2023-03-01T02:27:18;0.67;;;0.67;;
5662;SDS011;2854;42.692;23.364;2023-03-01T02:29:46;0.80;;;0.80;;
5662;SDS011;2854;42.692;23.364;2023-03-01T02:32:12;1.53;;;1.43;;
5662;SDS011;2854;42.692;23.364;2023-03-01T02:34:40;2.30;;;1.50;;
5662;SDS011;2854;42.692;23.364;2023-03-01T02:37:12;1.47;;;1.37;;
5662;SDS011;2854;42.692;23.364;2023-03-01T02:39:40;1.60;;;1.50;;
5662;SDS011;2854;42.692;23.364;2023-03-01T02:42:09;1.30;;;1.20;;
5662;SDS011;2854;42.692;23.364;2023-03-01T02:44:35;1.10;;;1.03;;
5662;SDS011;2854;42.692;23.364;2023-03-01T02:47:01;0.80;;;0.80;;
5662;SDS011;2854;42.692;23.364;2023-03-01T02:49:28;1.00;;;0.90;;
5662;SDS011;2854;42.692;23.364;2023-03-01T02:52:01;1.00;;;0.87;;
5662;SDS011;2854;42.692;23.364;2023-03-01T02:54:49;1.40;;;1.30;;
5662;SDS011;2854;42.692;23.364;2023-03-01T02:57:16;1.30;;;1.20;;
5662;SDS011;2854;42.692;23.364;2023-03-01T02:59:42;1.10;;;1.00;;
5662;SDS011;2854;42.692;23.364;2023-03-01T03:02:17;4.43;;;0.80;;
5662;SDS011;2854;42.692;23.364;2023-03-01T03:04:45;1.27;;;1.17;;
5662;SDS011;2854;42.692;23.364;2023-03-01T03:07:10;1.53;;;1.10;;
5662;SDS011;2854;42.692;23.364;2023-03-01T03:09:36;1.10;;;1.00;;
5662;SDS011;2854;42.692;23.364;2023-03-01T03:12:01;2.23;;;1.27;;
5662;SDS011;2854;42.692;23.364;2023-03-01T03:14:27;1.77;;;1.10;;
5662;SDS011;2854;42.692;23.364;2023-03-01T03:16:52;1.70;;;1.10;;
5662;SDS011;2854;42.692;23.364;2023-03-01T03:19:18;1.87;;;1.47;;
5662;SDS011;2854;42.692;23.364;2023-03-01T03:21:43;1.40;;;1.30;;
5662;SDS011;2854;42.692;23.364;2023-03-01T03:24:08;1.50;;;1.40;;
5662;SDS011;2854;42.692;23.364;2023-03-01T03:26:34;1.23;;;1.17;;
5662;SDS011;2854;42.692;23.364;2023-03-01T03:28:59;1.17;;;1.07;;
5662;SDS011;2854;42.692;23.364;2023-03-01T03:31:25;1.07;;;0.87;;
5662;SDS011;2854;42.692;23.364;2023-03-01T03:33:51;1.23;;;1.13;;
5662;SDS011;2854;42.692;23.364;2023-03-01T03:36:17;1.57;;;1.13;;
5662;SDS011;2854;42.692;23.364;2023-03-01T03:38:42;0.93;;;0.93;;
5662;SDS011;2854;42.692;23.364;2023-03-01T03:41:08;1.37;;;0.97;;
5662;SDS011;2854;42.692;23.364;2023-03-01T03:46:17;1.70;;;1.53;;
5662;SDS011;2854;42.692;23.364;2023-03-01T03:48:44;1.90;;;1.20;;
5662;SDS011;2854;42.692;23.364;2023-03-01T03:51:10;1.27;;;1.17;;
5662;SDS011;2854;42.692;23.364;2023-03-01T03:53:36;1.47;;;1.37;;
5662;SDS011;2854;42.692;23.364;2023-03-01T04:01:30;2.80;;;2.60;;
5662;SDS011;2854;42.692;23.364;2023-03-01T04:03:56;2.40;;;2.20;;
5662;SDS011;2854;42.692;23.364;2023-03-01T04:06:21;1.40;;;1.30;;
5662;SDS011;2854;42.692;23.364;2023-03-01T04:08:46;1.17;;;1.17;;
5662;SDS011;2854;42.692;23.364;2023-03-01T04:11:15;1.63;;;1.40;;
5662;SDS011;2854;42.692;23.364;2023-03-01T04:13:54;1.60;;;1.50;;
5662;SDS011;2854;42.692;23.364;2023-03-01T04:16:19;1.20;;;1.13;;
5662;SDS011;2854;42.692;23.364;2023-03-01T04:18:45;2.83;;;1.60;;
5662;SDS011;2854;42.692;23.364;2023-03-01T04:21:10;1.57;;;1.37;;
5662;SDS011;2854;42.692;23.364;2023-03-01T04:23:36;1.13;;;1.07;;
5662;SDS011;2854;42.692;23.364;2023-03-01T04:26:02;1.23;;;1.13;;
5662;SDS011;2854;42.692;23.364;2023-03-01T04:28:32;1.50;;;1.40;;
5662;SDS011;2854;42.692;23.364;2023-03-01T04:31:05;1.40;;;1.30;;
5662;SDS011;2854;42.692;23.364;2023-03-01T04:33:38;1.30;;;1.10;;
5662;SDS011;2854;42.692;23.364;2023-03-01T04:36:03;1.30;;;1.20;;
5662;SDS011;2854;42.692;23.364;2023-03-01T04:38:30;1.30;;;1.20;;
5662;SDS011;2854;42.692;23.364;2023-03-01T04:40:55;0.87;;;0.87;;
5662;SDS011;2854;42.692;23.364;2023-03-01T04:43:21;1.90;;;1.60;;
5662;SDS011;2854;42.692;23.364;2023-03-01T04:45:46;1.30;;;1.07;;
5662;SDS011;2854;42.692;23.364;2023-03-01T04:48:11;2.67;;;1.87;;
5662;SDS011;2854;42.692;23.364;2023-03-01T04:50:36;2.00;;;1.50;;
5662;SDS011;2854;42.692;23.364;2023-03-01T04:53:02;2.43;;;1.87;;
5662;SDS011;2854;42.692;23.364;2023-03-01T04:55:27;1.43;;;1.20;;
5662;SDS011;2854;42.692;23.364;2023-03-01T04:57:53;1.97;;;1.80;;
5662;SDS011;2854;42.692;23.364;2023-03-01T05:00:18;1.33;;;1.23;;
5662;SDS011;2854;42.692;23.364;2023-03-01T05:05:13;0.90;;;0.90;;
5662;SDS011;2854;42.692;23.364;2023-03-01T05:07:38;2.23;;;1.33;;
5662;SDS011;2854;42.692;23.364;2023-03-01T05:10:04;2.37;;;1.13;;
5662;SDS011;2854;42.692;23.364;2023-03-01T05:12:29;1.40;;;1.30;;
5662;SDS011;2854;42.692;23.364;2023-03-01T05:14:54;1.77;;;1.67;;
5662;SDS011;2854;42.692;23.364;2023-03-01T05:17:20;1.90;;;1.80;;
5662;SDS011;2854;42.692;23.364;2023-03-01T05:19:45;1.97;;;1.83;;
5662;SDS011;2854;42.692;23.364;2023-03-01T05:22:11;4.47;;;1.80;;
5662;SDS011;2854;42.692;23.364;2023-03-01T05:24:36;2.00;;;1.77;;
5662;SDS011;2854;42.692;23.364;2023-03-01T05:27:03;3.93;;;2.23;;
5662;SDS011;2854;42.692;23.364;2023-03-01T05:29:29;2.20;;;2.00;;
5662;SDS011;2854;42.692;23.364;2023-03-01T05:31:56;7.07;;;1.90;;
5662;SDS011;2854;42.692;23.364;2023-03-01T05:34:26;3.40;;;2.27;;
5662;SDS011;2854;42.692;23.364;2023-03-01T05:36:53;4.10;;;2.10;;
5662;SDS011;2854;42.692;23.364;2023-03-01T05:39:19;3.80;;;2.33;;
5662;SDS011;2854;42.692;23.364;2023-03-01T05:41:44;1.40;;;1.30;;
5662;SDS011;2854;42.692;23.364;2023-03-01T05:44:10;1.90;;;1.70;;
5662;SDS011;2854;42.692;23.364;2023-03-01T05:46:37;1.60;;;1.50;;
5662;SDS011;2854;42.692;23.364;2023-03-01T05:49:02;5.53;;;1.63;;
5662;SDS011;2854;42.692;23.364;2023-03-01T05:51:29;1.67;;;1.57;;
5662;SDS011;2854;42.692;23.364;2023-03-01T05:53:54;3.67;;;1.90;;
5662;SDS011;2854;42.692;23.364;2023-03-01T05:56:19;2.00;;;1.90;;
5662;SDS011;2854;42.692;23.364;2023-03-01T05:58:47;1.93;;;1.50;;
5662;SDS011;2854;42.692;23.364;2023-03-01T06:01:12;1.43;;;1.33;;
5662;SDS011;2854;42.692;23.364;2023-03-01T06:03:38;1.50;;;1.40;;
5662;SDS011;2854;42.692;23.364;2023-03-01T06:06:03;3.03;;;1.60;;
5662;SDS011;2854;42.692;23.364;2023-03-01T06:08:29;1.53;;;1.43;;
5662;SDS011;2854;42.692;23.364;2023-03-01T06:10:54;3.80;;;1.67;;
5662;SDS011;2854;42.692;23.364;2023-03-01T06:13:20;1.67;;;1.57;;
5662;SDS011;2854;42.692;23.364;2023-03-01T06:15:45;2.37;;;1.80;;
5662;SDS011;2854;42.692;23.364;2023-03-01T06:18:10;1.67;;;1.57;;
5662;SDS011;2854;42.692;23.364;2023-03-01T06:20:35;2.20;;;2.00;;
5662;SDS011;2854;42.692;23.364;2023-03-01T06:23:01;1.63;;;1.53;;
5662;SDS011;2854;42.692;23.364;2023-03-01T06:25:26;1.10;;;1.10;;
5662;SDS011;2854;42.692;23.364;2023-03-01T06:27:52;2.83;;;2.40;;
5662;SDS011;2854;42.692;23.364;2023-03-01T06:30:18;2.57;;;2.37;;
5662;SDS011;2854;42.692;23.364;2023-03-01T06:32:43;3.07;;;2.70;;
5662;SDS011;2854;42.692;23.364;2023-03-01T06:35:09;3.33;;;3.03;;
5662;SDS011;2854;42.692;23.364;2023-03-01T06:37:35;3.07;;;1.37;;
5662;SDS011;2854;42.692;23.364;2023-03-01T06:40:01;1.30;;;1.17;;
5662;SDS011;2854;42.692;23.364;2023-03-01T06:42:29;1.30;;;1.10;;
5662;SDS011;2854;42.692;23.364;2023-03-01T06:44:54;1.40;;;1.30;;
5662;SDS011;2854;42.692;23.364;2023-03-01T06:47:20;2.73;;;2.17;;
5662;SDS011;2854;42.692;23.364;2023-03-01T06:49:45;3.47;;;2.10;;
5662;SDS011;2854;42.692;23.364;2023-03-01T06:52:10;1.43;;;1.33;;
5662;SDS011;2854;42.692;23.364;2023-03-01T06:54:36;1.30;;;1.13;;
5662;SDS011;2854;42.692;23.364;2023-03-01T06:57:01;2.13;;;2.00;;
5662;SDS011;2854;42.692;23.364;2023-03-01T06:59:26;1.57;;;1.33;;
5662;SDS011;2854;42.692;23.364;2023-03-01T07:01:52;1.40;;;1.30;;
5662;SDS011;2854;42.692;23.364;2023-03-01T07:04:17;6.30;;;2.40;;
5662;SDS011;2854;42.692;23.364;2023-03-01T07:06:42;1.30;;;1.20;;
5662;SDS011;2854;42.692;23.364;2023-03-01T07:09:07;1.10;;;1.00;;
5662;SDS011;2854;42.692;23.364;2023-03-01T07:11:32;1.50;;;1.40;;
5662;SDS011;2854;42.692;23.364;2023-03-01T07:13:58;1.50;;;1.40;;
5662;SDS011;2854;42.692;23.364;2023-03-01T07:16:25;1.40;;;1.30;;
5662;SDS011;2854;42.692;23.364;2023-03-01T07:18:50;1.00;;;1.00;;
5662;SDS011;2854;42.692;23.364;2023-03-01T07:21:15;2.70;;;2.50;;
5662;SDS011;2854;42.692;23.364;2023-03-01T07:23:41;3.80;;;1.63;;
5662;SDS011;2854;42.692;23.364;2023-03-01T07:26:07;1.83;;;1.20;;
5662;SDS011;2854;42.692;23.364;2023-03-01T07:28:32;5.10;;;1.80;;
5662;SDS011;2854;42.692;23.364;2023-03-01T07:31:01;1.73;;;1.63;;
5662;SDS011;2854;42.692;23.364;2023-03-01T07:33:27;6.10;;;1.50;;
5662;SDS011;2854;42.692;23.364;2023-03-01T07:35:59;1.63;;;1.53;;
5662;SDS011;2854;42.692;23.364;2023-03-01T07:38:25;1.93;;;1.10;;
5662;SDS011;2854;42.692;23.364;2023-03-01T07:40:51;0.93;;;0.83;;
5662;SDS011;2854;42.692;23.364;2023-03-01T07:43:16;1.63;;;1.53;;
5662;SDS011;2854;42.692;23.364;2023-03-01T07:45:41;1.20;;;1.10;;
5662;SDS011;2854;42.692;23.364;2023-03-01T07:48:06;2.40;;;1.53;;
5662;SDS011;2854;42.692;23.364;2023-03-01T07:50:31;2.37;;;1.43;;
5662;SDS011;2854;42.692;23.364;2023-03-01T07:52:57;2.50;;;1.53;;
5662;SDS011;2854;42.692;23.364;2023-03-01T07:55:22;1.70;;;1.40;;
5662;SDS011;2854;42.692;23.364;2023-03-01T07:57:47;2.33;;;1.67;;
5662;SDS011;2854;42.692;23.364;2023-03-01T08:00:13;1.90;;;1.80;;
5662;SDS011;2854;42.692;23.364;2023-03-01T08:02:38;5.53;;;3.47;;
5662;SDS011;2854;42.692;23.364;2023-03-01T08:05:05;5.43;;;3.17;;
5662;SDS011;2854;42.692;23.364;2023-03-01T08:07:30;3.33;;;1.93;;
5662;SDS011;2854;42.692;23.364;2023-03-01T08:09:56;1.83;;;1.53;;
5662;SDS011;2854;42.692;23.364;2023-03-01T08:12:21;2.43;;;1.00;;
5662;SDS011;2854;42.692;23.364;2023-03-01T08:14:46;3.83;;;1.10;;
5662;SDS011;2854;42.692;23.364;2023-03-01T08:17:13;0.73;;;0.73;;
5662;SDS011;2854;42.692;23.364;2023-03-01T08:19:38;1.10;;;1.00;;
5662;SDS011;2854;42.692;23.364;2023-03-01T08:22:04;3.17;;;1.67;;
5662;SDS011;2854;42.692;23.364;2023-03-01T08:24:29;1.50;;;1.40;;
5662;SDS011;2854;42.692;23.364;2023-03-01T08:26:54;1.70;;;1.20;;
5662;SDS011;2854;42.692;23.364;2023-03-01T08:29:20;4.60;;;1.50;;
5662;SDS011;2854;42.692;23.364;2023-03-01T08:31:45;1.90;;;1.40;;
5662;SDS011;2854;42.692;23.364;2023-03-01T08:34:12;1.17;;;1.07;;
5662;SDS011;2854;42.692;23.364;2023-03-01T08:36:39;1.70;;;1.13;;
5662;SDS011;2854;42.692;23.364;2023-03-01T08:39:05;1.27;;;1.17;;
5662;SDS011;2854;42.692;23.364;2023-03-01T08:41:31;0.90;;;0.90;;
5662;SDS011;2854;42.692;23.364;2023-03-01T08:43:56;3.87;;;1.13;;
5662;SDS011;2854;42.692;23.364;2023-03-01T08:46:57;1.13;;;1.03;;
5662;SDS011;2854;42.692;23.364;2023-03-01T08:49:17;1.17;;;1.07;;
5662;SDS011;2854;42.692;23.364;2023-03-01T08:51:43;1.20;;;1.07;;
5662;SDS011;2854;42.692;23.364;2023-03-01T08:54:12;1.20;;;1.10;;
5662;SDS011;2854;42.692;23.364;2023-03-01T08:56:38;1.10;;;1.00;;
5662;SDS011;2854;42.692;23.364;2023-03-01T08:59:03;1.10;;;1.00;;
5662;SDS011;2854;42.692;23.364;2023-03-01T09:01:28;1.73;;;1.60;;
5662;SDS011;2854;42.692;23.364;2023-03-01T09:03:54;1.97;;;1.87;;
5662;SDS011;2854;42.692;23.364;2023-03-01T09:06:19;1.27;;;1.13;;
5662;SDS011;2854;42.692;23.364;2023-03-01T09:08:45;1.60;;;1.50;;
5662;SDS011;2854;42.692;23.364;2023-03-01T09:11:12;0.90;;;0.90;;
5662;SDS011;2854;42.692;23.364;2023-03-01T09:13:37;1.03;;;1.03;;
5662;SDS011;2854;42.692;23.364;2023-03-01T09:16:04;0.80;;;0.80;;
5662;SDS011;2854;42.692;23.364;2023-03-01T09:18:29;1.23;;;1.13;;
5662;SDS011;2854;42.692;23.364;2023-03-01T09:21:04;1.40;;;1.30;;
5662;SDS011;2854;42.692;23.364;2023-03-01T09:23:32;3.03;;;2.10;;
5662;SDS011;2854;42.692;23.364;2023-03-01T09:25:57;1.73;;;1.63;;
5662;SDS011;2854;42.692;23.364;2023-03-01T09:28:23;1.20;;;1.10;;
5662;SDS011;2854;42.692;23.364;2023-03-01T09:30:48;1.53;;;0.83;;
5662;SDS011;2854;42.692;23.364;2023-03-01T09:33:13;2.90;;;0.90;;
5662;SDS011;2854;42.692;23.364;2023-03-01T09:35:39;1.97;;;1.87;;
5662;SDS011;2854;42.692;23.364;2023-03-01T09:38:10;1.80;;;1.50;;
5662;SDS011;2854;42.692;23.364;2023-03-01T09:40:36;0.93;;;0.90;;
5662;SDS011;2854;42.692;23.364;2023-03-01T09:43:11;1.50;;;1.40;;
5662;SDS011;2854;42.692;23.364;2023-03-01T09:45:41;1.73;;;1.57;;
5662;SDS011;2854;42.692;23.364;2023-03-01T09:48:10;1.43;;;1.33;;
5662;SDS011;2854;42.692;23.364;2023-03-01T09:50:38;1.20;;;1.10;;
5662;SDS011;2854;42.692;23.364;2023-03-01T09:53:12;2.00;;;0.80;;
5662;SDS011;2854;42.692;23.364;2023-03-01T09:55:39;0.90;;;0.90;;
5662;SDS011;2854;42.692;23.364;2023-03-01T10:00:39;1.73;;;1.50;;
5662;SDS011;2854;42.692;23.364;2023-03-01T10:05:59;1.20;;;1.10;;
5662;SDS011;2854;42.692;23.364;2023-03-01T10:11:28;0.90;;;0.90;;
5662;SDS011;2854;42.692;23.364;2023-03-01T10:18:53;1.17;;;0.80;;
5662;SDS011;2854;42.692;23.364;2023-03-01T10:21:20;0.50;;;0.40;;
5662;SDS011;2854;42.692;23.364;2023-03-01T10:23:46;1.60;;;1.50;;
5662;SDS011;2854;42.692;23.364;2023-03-01T10:31:27;0.80;;;0.80;;
5662;SDS011;2854;42.692;23.364;2023-03-01T10:34:02;2.23;;;1.40;;
5662;SDS011;2854;42.692;23.364;2023-03-01T10:36:28;3.73;;;1.80;;
5662;SDS011;2854;42.692;23.364;2023-03-01T10:38:57;1.73;;;1.40;;
5662;SDS011;2854;42.692;23.364;2023-03-01T10:41:24;2.00;;;1.33;;
5662;SDS011;2854;42.692;23.364;2023-03-01T10:43:53;12.37;;;2.83;;
5662;SDS011;2854;42.692;23.364;2023-03-01T10:51:30;4.23;;;2.13;;
5662;SDS011;2854;42.692;23.364;2023-03-01T10:53:56;2.60;;;1.40;;
5662;SDS011;2854;42.692;23.364;2023-03-01T10:56:21;0.60;;;0.60;;
5662;SDS011;2854;42.692;23.364;2023-03-01T10:58:57;0.80;;;0.70;;
5662;SDS011;2854;42.692;23.364;2023-03-01T11:03:55;1.20;;;1.10;;
5662;SDS011;2854;42.692;23.364;2023-03-01T11:06:27;0.70;;;0.70;;
5662;SDS011;2854;42.692;23.364;2023-03-01T11:08:52;4.87;;;0.73;;
5662;SDS011;2854;42.692;23.364;2023-03-01T11:13:49;1.50;;;0.77;;
5662;SDS011;2854;42.692;23.364;2023-03-01T11:16:15;0.90;;;0.63;;
5662;SDS011;2854;42.692;23.364;2023-03-01T11:18:55;2.40;;;1.50;;
5662;SDS011;2854;42.692;23.364;2023-03-01T11:21:20;1.30;;;1.17;;
5662;SDS011;2854;42.692;23.364;2023-03-01T11:23:46;1.37;;;1.27;;
5662;SDS011;2854;42.692;23.364;2023-03-01T11:26:12;1.63;;;1.30;;
5662;SDS011;2854;42.692;23.364;2023-03-01T11:28:37;1.80;;;1.20;;
5662;SDS011;2854;42.692;23.364;2023-03-01T11:31:05;4.53;;;0.90;;
5662;SDS011;2854;42.692;23.364;2023-03-01T11:33:41;0.70;;;0.70;;
5662;SDS011;2854;42.692;23.364;2023-03-01T11:36:28;0.60;;;0.60;;
5662;SDS011;2854;42.692;23.364;2023-03-01T11:38:53;0.80;;;0.80;;
5662;SDS011;2854;42.692;23.364;2023-03-01T11:41:31;0.70;;;0.70;;
5662;SDS011;2854;42.692;23.364;2023-03-01T11:43:59;1.30;;;1.20;;
5662;SDS011;2854;42.692;23.364;2023-03-01T11:49:12;1.70;;;1.60;;
5662;SDS011;2854;42.692;23.364;2023-03-01T11:54:21;1.50;;;1.40;;
5662;SDS011;2854;42.692;23.364;2023-03-01T11:57:04;1.80;;;1.10;;
5662;SDS011;2854;42.692;23.364;2023-03-01T12:14:23;1.73;;;1.10;;
5662;SDS011;2854;42.692;23.364;2023-03-01T12:45:02;1.83;;;1.33;;
5662;SDS011;2854;42.692;23.364;2023-03-01T12:50:17;1.07;;;1.00;;
5662;SDS011;2854;42.692;23.364;2023-03-01T12:52:44;2.50;;;1.00;;
5662;SDS011;2854;42.692;23.364;2023-03-01T12:55:29;1.23;;;1.13;;
5662;SDS011;2854;42.692;23.364;2023-03-01T13:00:50;0.80;;;0.67;;
5662;SDS011;2854;42.692;23.364;2023-03-01T13:03:38;1.50;;;1.40;;
5662;SDS011;2854;42.692;23.364;2023-03-01T13:11:23;1.13;;;0.83;;
5662;SDS011;2854;42.692;23.364;2023-03-01T13:13:48;1.10;;;1.00;;
5662;SDS011;2854;42.692;23.364;2023-03-01T13:19:13;3.70;;;1.60;;
5662;SDS011;2854;42.692;23.364;2023-03-01T13:21:40;1.83;;;1.17;;
5662;SDS011;2854;42.692;23.364;2023-03-01T13:24:23;2.07;;;1.63;;
5662;SDS011;2854;42.692;23.364;2023-03-01T13:27:22;1.47;;;1.20;;
5662;SDS011;2854;42.692;23.364;2023-03-01T13:32:17;1.87;;;1.60;;
5662;SDS011;2854;42.692;23.364;2023-03-01T13:34:44;1.67;;;1.40;;
5662;SDS011;2854;42.692;23.364;2023-03-01T13:37:13;1.50;;;1.40;;
5662;SDS011;2854;42.692;23.364;2023-03-01T13:39:43;1.20;;;1.10;;
5662;SDS011;2854;42.692;23.364;2023-03-01T13:45:14;3.37;;;1.80;;
5662;SDS011;2854;42.692;23.364;2023-03-01T13:47:40;1.03;;;1.03;;
5662;SDS011;2854;42.692;23.364;2023-03-01T13:50:15;1.50;;;1.40;;
5662;SDS011;2854;42.692;23.364;2023-03-01T13:52:44;1.17;;;0.93;;
5662;SDS011;2854;42.692;23.364;2023-03-01T13:57:50;3.30;;;1.77;;
5662;SDS011;2854;42.692;23.364;2023-03-01T14:03:03;1.63;;;1.43;;
5662;SDS011;2854;42.692;23.364;2023-03-01T14:05:29;2.83;;;2.50;;
5662;SDS011;2854;42.692;23.364;2023-03-01T14:07:55;2.50;;;2.23;;
5662;SDS011;2854;42.692;23.364;2023-03-01T14:10:20;3.03;;;1.93;;
5662;SDS011;2854;42.692;23.364;2023-03-01T14:12:59;1.80;;;1.70;;
5662;SDS011;2854;42.692;23.364;2023-03-01T14:15:27;1.43;;;1.33;;
5662;SDS011;2854;42.692;23.364;2023-03-01T14:18:04;1.50;;;1.40;;
5662;SDS011;2854;42.692;23.364;2023-03-01T14:20:33;1.93;;;1.60;;
5662;SDS011;2854;42.692;23.364;2023-03-01T14:23:02;1.93;;;1.20;;
5662;SDS011;2854;42.692;23.364;2023-03-01T14:25:34;1.77;;;1.67;;
5662;SDS011;2854;42.692;23.364;2023-03-01T14:30:38;1.83;;;1.70;;
5662;SDS011;2854;42.692;23.364;2023-03-01T14:33:15;1.93;;;1.40;;
5662;SDS011;2854;42.692;23.364;2023-03-01T14:35:42;2.00;;;1.43;;
5662;SDS011;2854;42.692;23.364;2023-03-01T14:38:19;1.73;;;1.33;;
5662;SDS011;2854;42.692;23.364;2023-03-01T14:40:45;3.63;;;2.40;;
5662;SDS011;2854;42.692;23.364;2023-03-01T14:43:11;2.13;;;1.70;;
5662;SDS011;2854;42.692;23.364;2023-03-01T14:45:37;1.60;;;1.50;;
5662;SDS011;2854;42.692;23.364;2023-03-01T14:48:03;2.00;;;1.60;;
5662;SDS011;2854;42.692;23.364;2023-03-01T14:50:30;1.33;;;1.23;;
5662;SDS011;2854;42.692;23.364;2023-03-01T14:52:59;1.77;;;1.67;;
5662;SDS011;2854;42.692;23.364;2023-03-01T14:55:30;2.07;;;1.87;;
5662;SDS011;2854;42.692;23.364;2023-03-01T14:57:56;2.40;;;2.20;;
5662;SDS011;2854;42.692;23.364;2023-03-01T15:00:26;2.37;;;2.17;;
5662;SDS011;2854;42.692;23.364;2023-03-01T15:02:52;2.50;;;2.30;;
5662;SDS011;2854;42.692;23.364;2023-03-01T15:05:39;4.47;;;1.97;;
5662;SDS011;2854;42.692;23.364;2023-03-01T15:08:03;2.63;;;2.20;;
5662;SDS011;2854;42.692;23.364;2023-03-01T15:10:33;3.90;;;2.00;;
5662;SDS011;2854;42.692;23.364;2023-03-01T15:13:44;1.67;;;1.50;;
5662;SDS011;2854;42.692;23.364;2023-03-01T15:15:44;2.90;;;2.03;;
5662;SDS011;2854;42.692;23.364;2023-03-01T15:18:21;2.10;;;1.70;;
5662;SDS011;2854;42.692;23.364;2023-03-01T15:20:47;43.27;;;2.90;;
5662;SDS011;2854;42.692;23.364;2023-03-01T15:23:21;5.57;;;1.90;;
5662;SDS011;2854;42.692;23.364;2023-03-01T15:25:47;3.30;;;3.00;;
5662;SDS011;2854;42.692;23.364;2023-03-01T15:28:21;4.07;;;1.93;;
5662;SDS011;2854;42.692;23.364;2023-03-01T15:30:51;3.97;;;2.30;;
5662;SDS011;2854;42.692;23.364;2023-03-01T15:33:31;6.60;;;2.70;;
5662;SDS011;2854;42.692;23.364;2023-03-01T15:35:57;6.63;;;3.27;;
5662;SDS011;2854;42.692;23.364;2023-03-01T15:41:02;2.80;;;2.30;;
5662;SDS011;2854;42.692;23.364;2023-03-01T15:43:38;5.33;;;3.10;;
5662;SDS011;2854;42.692;23.364;2023-03-01T15:46:03;3.83;;;2.77;;
5662;SDS011;2854;42.692;23.364;2023-03-01T15:48:29;2.93;;;2.40;;
5662;SDS011;2854;42.692;23.364;2023-03-01T15:50:58;6.67;;;2.17;;
5662;SDS011;2854;42.692;23.364;2023-03-01T15:53:23;2.50;;;2.20;;
5662;SDS011;2854;42.692;23.364;2023-03-01T15:55:49;8.07;;;3.00;;
5662;SDS011;2854;42.692;23.364;2023-03-01T16:00:40;6.67;;;2.90;;
5662;SDS011;2854;42.692;23.364;2023-03-01T16:03:06;10.17;;;2.47;;
5662;SDS011;2854;42.692;23.364;2023-03-01T16:05:34;3.50;;;2.73;;
5662;SDS011;2854;42.692;23.364;2023-03-01T16:08:00;5.30;;;2.70;;
5662;SDS011;2854;42.692;23.364;2023-03-01T16:10:25;2.50;;;2.23;;
5662;SDS011;2854;42.692;23.364;2023-03-01T16:12:51;3.90;;;2.43;;
5662;SDS011;2854;42.692;23.364;2023-03-01T16:15:23;3.20;;;2.30;;
5662;SDS011;2854;42.692;23.364;2023-03-01T16:17:49;4.60;;;2.80;;
5662;SDS011;2854;42.692;23.364;2023-03-01T16:20:15;4.67;;;2.40;;
5662;SDS011;2854;42.692;23.364;2023-03-01T16:22:43;4.77;;;3.20;;
5662;SDS011;2854;42.692;23.364;2023-03-01T16:25:12;4.70;;;3.43;;
5662;SDS011;2854;42.692;23.364;2023-03-01T16:27:38;3.50;;;3.27;;
5662;SDS011;2854;42.692;23.364;2023-03-01T16:30:04;7.27;;;4.07;;
5662;SDS011;2854;42.692;23.364;2023-03-01T16:32:29;9.50;;;5.43;;
5662;SDS011;2854;42.692;23.364;2023-03-01T16:34:55;2.87;;;2.67;;
5662;SDS011;2854;42.692;23.364;2023-03-01T16:37:20;2.53;;;2.33;;
5662;SDS011;2854;42.692;23.364;2023-03-01T16:39:46;3.97;;;2.70;;
5662;SDS011;2854;42.692;23.364;2023-03-01T16:42:12;4.57;;;2.80;;
5662;SDS011;2854;42.692;23.364;2023-03-01T16:44:37;4.20;;;3.13;;
5662;SDS011;2854;42.692;23.364;2023-03-01T16:47:03;2.80;;;2.60;;
5662;SDS011;2854;42.692;23.364;2023-03-01T16:49:28;5.83;;;3.10;;
5662;SDS011;2854;42.692;23.364;2023-03-01T16:51:53;7.43;;;3.77;;
5662;SDS011;2854;42.692;23.364;2023-03-01T16:54:19;3.03;;;2.73;;
5662;SDS011;2854;42.692;23.364;2023-03-01T16:56:44;4.80;;;3.10;;
5662;SDS011;2854;42.692;23.364;2023-03-01T16:59:09;7.03;;;2.50;;
5662;SDS011;2854;42.692;23.364;2023-03-01T17:01:34;5.00;;;3.00;;
5662;SDS011;2854;42.692;23.364;2023-03-01T17:04:04;6.80;;;3.37;;